Time;durP1;ratioP1;P1;durP2;ratioP2;P2;SDS_P1;SDS_P2;PMS_P1;PMS_P2;Temp;Humidity;BMP_temperature;BMP_pressure;BME280_temperature;BME280_humidity;BME280_pressure;Samples;Min_cycle;Max_cycle;Signal;HPM_P1;HPM_P2
2023/09/18 00:02:24;;;;;;;;;;;;;;;18.32;100.00;95330.72;10523494;28;1939;-63
2023/09/18 00:07:29;;;;;;;;;;;;;;;18.25;100.00;95321.47;10512313;28;1960;-65
2023/09/18 00:12:33;;;;;;;;;;;;;;;18.32;100.00;95319.00;10519278;28;1996;-67
2023/09/18 00:17:39;;;;;;;;;;;;;;;18.19;100.00;95307.25;10527070;28;2754;-69
2023/09/18 00:22:42;;;;;;;;;;;;;;;17.96;100.00;95312.25;10533574;28;1935;-64
2023/09/18 00:27:46;;;;;;;;;;;;;;;18.10;100.00;95303.84;10532942;28;1862;-64
2023/09/18 00:32:49;;;;;;;;;;;;;;;18.06;100.00;95286.56;10510272;28;1977;-64
2023/09/18 00:37:56;;;;;;;;;;;;;;;17.96;100.00;95265.25;10523581;28;1863;-63
2023/09/18 00:42:58;;;;;;;;;;;;;;;18.16;100.00;95264.44;10519087;28;4932;-64
2023/09/18 00:48:04;;;;;;;;;;;;;;;17.88;100.00;95266.91;10518716;28;2003;-63
2023/09/18 00:53:07;;;;;;;;;;;;;;;17.95;100.00;95258.22;10507447;28;2003;-63
2023/09/18 00:58:12;;;;;;;;;;;;;;;17.96;100.00;95263.31;10526870;28;2211;-64
2023/09/18 01:03:17;;;;;;;;;;;;;;;17.80;100.00;95254.94;10530992;28;2729;-64
2023/09/18 01:08:20;;;;;;;;;;;;;;;17.80;100.00;95235.94;10530687;28;1961;-63
2023/09/18 01:13:23;;;;;;;;;;;;;;;17.77;100.00;95236.59;10513447;28;1997;-63
2023/09/18 01:18:26;;;;;;;;;;;;;;;17.58;100.00;95233.53;10496262;28;1999;-62
2023/09/18 01:23:31;;;;;;;;;;;;;;;17.44;100.00;95239.22;10531077;28;1962;-64
2023/09/18 01:28:34;;;;;;;;;;;;;;;17.26;100.00;95233.09;10513754;28;1984;-64
2023/09/18 01:33:37;;;;;;;;;;;;;;;17.23;100.00;95235.66;10527191;28;2033;-63
2023/09/18 01:38:39;;;;;;;;;;;;;;;17.27;100.00;95233.88;10509460;28;1971;-63
2023/09/18 01:43:43;;;;;;;;;;;;;;;17.26;100.00;95241.25;10526692;28;4862;-63
2023/09/18 01:48:46;;;;;;;;;;;;;;;17.32;100.00;95216.59;10529787;28;2717;-64
2023/09/18 01:53:50;;;;;;;;;;;;;;;17.46;100.00;95209.00;10516371;28;2207;-63
2023/09/18 01:58:53;;;;;;;;;;;;;;;17.49;100.00;95192.00;10491653;28;1989;-63
2023/09/18 02:03:56;;;;;;;;;;;;;;;17.36;100.00;95193.06;10503686;28;1965;-63
2023/09/18 02:09:19;;;;;;;;;;;;;;;17.25;100.00;95198.91;10523862;28;2246;-64
2023/09/18 02:14:30;;;;;;;;;;;;;;;17.17;100.00;95194.31;10490818;28;2345;-64
2023/09/18 02:19:33;;;;;;;;;;;;;;;17.18;100.00;95190.50;10513934;28;1977;-64
2023/09/18 02:24:36;;;;;;;;;;;;;;;17.16;100.00;95187.28;10529139;28;1899;-67
2023/09/18 02:29:39;;;;;;;;;;;;;;;17.19;100.00;95186.66;10526574;28;2035;-65
2023/09/18 02:34:41;;;;;;;;;;;;;;;17.28;100.00;95181.94;10527350;28;2776;-63
2023/09/18 02:39:44;;;;;;;;;;;;;;;17.26;100.00;95172.53;10527919;28;1977;-63
2023/09/18 02:44:47;;;;;;;;;;;;;;;17.34;100.00;95165.44;10521998;28;5095;-65
2023/09/18 02:49:49;;;;;;;;;;;;;;;17.23;100.00;95168.56;10522946;28;2015;-64
2023/09/18 02:54:52;;;;;;;;;;;;;;;17.13;100.00;95154.59;10528664;28;1936;-67
2023/09/18 02:59:55;;;;;;;;;;;;;;;17.06;100.00;95157.81;10523323;28;1830;-65
2023/09/18 03:04:57;;;;;;;;;;;;;;;16.93;100.00;95158.88;10528889;28;1932;-64
2023/09/18 03:10:13;;;;;;;;;;;;;;;17.00;100.00;95157.22;10526721;28;1960;-65
2023/09/18 03:15:16;;;;;;;;;;;;;;;17.03;100.00;95158.47;10527738;28;1933;-64
2023/09/18 03:20:20;;;;;;;;;;;;;;;16.95;100.00;95148.47;10535594;28;1878;-65
2023/09/18 03:25:23;;;;;;;;;;;;;;;16.96;100.00;95136.47;10508270;28;1905;-65
2023/09/18 03:30:25;;;;;;;;;;;;;;;16.83;100.00;95141.03;10519036;28;1988;-65
2023/09/18 03:35:28;;;;;;;;;;;;;;;16.70;100.00;95129.28;10531764;28;2775;-65
2023/09/18 03:40:31;;;;;;;;;;;;;;;16.71;100.00;95122.72;10536901;28;4804;-64
2023/09/18 03:45:33;;;;;;;;;;;;;;;16.85;100.00;95121.69;10524018;28;1909;-65
2023/09/18 03:50:36;;;;;;;;;;;;;;;16.75;100.00;95107.38;10511146;28;1971;-64
2023/09/18 03:55:39;;;;;;;;;;;;;;;16.70;100.00;95102.16;10528784;28;1830;-64
2023/09/18 04:00:42;;;;;;;;;;;;;;;16.74;100.00;95103.09;10506619;28;2042;-64
2023/09/18 04:05:46;;;;;;;;;;;;;;;16.86;100.00;95090.69;10529531;28;1971;-65
2023/09/18 04:10:49;;;;;;;;;;;;;;;16.73;100.00;95090.66;10526572;28;1980;-63
2023/09/18 04:15:56;;;;;;;;;;;;;;;16.55;100.00;95094.56;10520458;28;1975;-63
2023/09/18 04:20:59;;;;;;;;;;;;;;;16.49;100.00;95083.09;10522570;28;2686;-63
2023/09/18 04:26:02;;;;;;;;;;;;;;;16.51;100.00;95076.53;10522082;28;1909;-63
2023/09/18 04:31:04;;;;;;;;;;;;;;;16.64;100.00;95079.00;10535542;28;2004;-63
2023/09/18 04:36:07;;;;;;;;;;;;;;;16.71;100.00;95071.16;10532717;28;3705;-63
2023/09/18 04:41:11;;;;;;;;;;;;;;;16.64;100.00;95059.22;10531359;28;4695;-62
2023/09/18 04:46:14;;;;;;;;;;;;;;;16.59;100.00;95062.91;10535562;28;1995;-64
2023/09/18 04:51:17;;;;;;;;;;;;;;;16.61;100.00;95068.81;10532354;28;1929;-64
2023/09/18 04:56:20;;;;;;;;;;;;;;;16.47;100.00;95077.19;10511551;28;1951;-65
2023/09/18 05:01:24;;;;;;;;;;;;;;;16.71;100.00;95071.16;10535779;28;1983;-65
2023/09/18 05:06:27;;;;;;;;;;;;;;;16.56;100.00;95077.16;10527350;28;2774;-63
2023/09/18 05:11:38;;;;;;;;;;;;;;;16.60;100.00;95080.78;10533939;28;1971;-65
2023/09/18 05:16:42;;;;;;;;;;;;;;;16.63;100.00;95093.69;10533673;28;1976;-64
2023/09/18 05:21:46;;;;;;;;;;;;;;;16.67;100.00;95091.13;10529380;28;2039;-64
2023/09/18 05:26:49;;;;;;;;;;;;;;;16.82;100.00;95087.06;10514519;28;1936;-65
2023/09/18 05:31:52;;;;;;;;;;;;;;;16.97;100.00;95083.75;10501189;28;1911;-65
2023/09/18 05:36:55;;;;;;;;;;;;;;;17.29;100.00;95098.53;10496120;28;1904;-65
2023/09/18 05:41:59;;;;;;;;;;;;;;;17.65;100.00;95084.31;10517594;28;4698;-69
2023/09/18 05:47:03;;;;;;;;;;;;;;;18.01;100.00;95091.78;10510314;28;2115;-68
2023/09/18 05:52:07;;;;;;;;;;;;;;;18.37;100.00;95080.16;10531614;28;2772;-65
2023/09/18 05:57:10;;;;;;;;;;;;;;;18.62;100.00;95059.16;10507565;28;1980;-65
2023/09/18 06:02:13;;;;;;;;;;;;;;;19.14;100.00;95052.16;10522824;28;1900;-65
2023/09/18 06:07:18;;;;;;;;;;;;;;;19.47;100.00;95048.41;10527357;28;1897;-67
2023/09/18 06:12:22;;;;;;;;;;;;;;;19.44;100.00;95064.31;10512344;28;2041;-65
2023/09/18 06:17:26;;;;;;;;;;;;;;;19.37;100.00;95066.84;10506090;28;2240;-66
2023/09/18 06:22:32;;;;;;;;;;;;;;;19.47;100.00;95056.56;10527525;28;2021;-81
2023/09/18 06:27:40;;;;;;;;;;;;;;;19.74;100.00;95060.47;10537170;28;1997;-81
2023/09/18 06:32:44;;;;;;;;;;;;;;;19.83;100.00;95056.44;10538668;28;1996;-81
2023/09/18 06:37:49;;;;;;;;;;;;;;;19.95;100.00;95070.00;10536626;28;2802;-81
2023/09/18 06:42:55;;;;;;;;;;;;;;;20.23;100.00;95074.59;10541016;28;1890;-82
2023/09/18 06:48:00;;;;;;;;;;;;;;;20.15;100.00;95070.09;10538451;28;1971;-77
2023/09/18 06:53:05;;;;;;;;;;;;;;;20.22;100.00;95073.00;10530643;28;2034;-75
2023/09/18 06:58:09;;;;;;;;;;;;;;;20.00;100.00;95088.06;10512898;28;2051;-76
2023/09/18 07:03:14;;;;;;;;;;;;;;;19.41;100.00;95122.25;10529661;28;2056;-76
2023/09/18 07:08:23;;;;;;;;;;;;;;;19.57;100.00;95129.69;10539738;28;1850;-77
2023/09/18 07:13:36;;;;;;;;;;;;;;;19.88;100.00;95123.56;10505537;28;1946;-78
2023/09/18 07:18:40;;;;;;;;;;;;;;;20.35;100.00;95142.72;10533713;28;2029;-79
2023/09/18 07:23:50;;;;;;;;;;;;;;;20.77;100.00;95150.44;10526518;28;2634;-76
2023/09/18 07:28:56;;;;;;;;;;;;;;;21.10;100.00;95165.66;10528018;28;2113;-76
2023/09/18 07:34:04;;;;;;;;;;;;;;;21.30;100.00;95154.41;10530655;28;1914;-76
2023/09/18 07:39:16;;;;;;;;;;;;;;;21.07;100.00;95150.75;10528701;28;1830;-77
2023/09/18 07:44:26;;;;;;;;;;;;;;;21.17;100.00;95144.72;10529409;28;4713;-77
2023/09/18 07:49:31;;;;;;;;;;;;;;;21.36;100.00;95152.22;10491401;28;1896;-76
2023/09/18 07:54:34;;;;;;;;;;;;;;;20.96;100.00;95149.72;10524330;28;1928;-74
2023/09/18 07:59:39;;;;;;;;;;;;;;;21.27;100.00;95149.66;10500575;28;1898;-76
2023/09/18 08:04:43;;;;;;;;;;;;;;;21.71;100.00;95174.06;10524512;28;1878;-77
2023/09/18 08:09:47;;;;;;;;;;;;;;;21.85;100.00;95189.97;10523578;28;1983;-76
2023/09/18 08:14:51;;;;;;;;;;;;;;;22.62;100.00;95180.91;10528748;28;1964;-76
2023/09/18 08:19:54;;;;;;;;;;;;;;;23.37;100.00;95173.91;10525842;28;1925;-76
2023/09/18 08:24:57;;;;;;;;;;;;;;;23.16;100.00;95185.34;10507382;28;1892;-76
2023/09/18 08:30:00;;;;;;;;;;;;;;;22.60;100.00;95197.69;10494519;28;1900;-76
2023/09/18 08:35:03;;;;;;;;;;;;;;;22.78;100.00;95194.50;10521271;28;2777;-77
2023/09/18 08:40:10;;;;;;;;;;;;;;;22.45;100.00;95200.53;10523480;28;4701;-75
2023/09/18 08:45:15;;;;;;;;;;;;;;;22.42;100.00;95213.00;10513077;28;1850;-74
2023/09/18 08:50:19;;;;;;;;;;;;;;;22.22;100.00;95230.63;10520262;28;1865;-76
2023/09/18 08:55:35;;;;;;;;;;;;;;;22.37;100.00;95229.72;10522537;28;1984;-75
2023/09/18 09:00:37;;;;;;;;;;;;;;;22.42;100.00;95234.94;10504789;28;1838;-74
2023/09/18 09:05:41;;;;;;;;;;;;;;;22.36;100.00;95241.84;10505134;28;2048;-74
2023/09/18 09:10:44;;;;;;;;;;;;;;;22.68;100.00;95253.41;10524910;28;1892;-77
2023/09/18 09:15:49;;;;;;;;;;;;;;;22.95;100.00;95256.25;10513089;28;1910;-76
2023/09/18 09:20:54;;;;;;;;;;;;;;;23.27;100.00;95245.81;10536078;28;2780;-75
2023/09/18 09:25:58;;;;;;;;;;;;;;;23.23;100.00;95244.97;10510311;28;1993;-75
2023/09/18 09:31:05;;;;;;;;;;;;;;;23.27;100.00;95245.81;10513831;28;1936;-75
2023/09/18 09:36:09;;;;;;;;;;;;;;;23.75;100.00;95235.19;10514282;28;1983;-76
2023/09/18 09:41:18;;;;;;;;;;;;;;;23.90;100.00;95224.03;10513544;28;4714;-75
2023/09/18 09:46:25;;;;;;;;;;;;;;;24.30;100.00;95241.00;10503114;28;1921;-75
2023/09/18 09:51:32;;;;;;;;;;;;;;;24.35;100.00;95249.72;10529555;28;1877;-75
2023/09/18 09:56:38;;;;;;;;;;;;;;;24.23;100.00;95258.16;10530602;28;1906;-73
2023/09/18 10:01:44;;;;;;;;;;;;;;;23.97;100.00;95261.75;10529280;28;1578;-75
2023/09/18 10:06:50;;;;;;;;;;;;;;;24.07;100.00;95266.63;10488697;28;2802;-81
2023/09/18 10:12:01;;;;;;;;;;;;;;;24.28;100.00;95264.13;10518382;28;1918;-83
2023/09/18 10:17:16;;;;;;;;;;;;;;;24.80;100.00;95259.63;10537101;28;1930;-76
2023/09/18 10:22:32;;;;;;;;;;;;;;;24.89;100.00;95261.31;10530797;28;1915;-76
2023/09/18 10:27:38;;;;;;;;;;;;;;;24.75;100.00;95259.22;10492082;28;1912;-75
2023/09/18 10:32:42;;;;;;;;;;;;;;;24.89;100.00;95255.81;10529421;28;1891;-76
2023/09/18 10:37:46;;;;;;;;;;;;;;;24.74;100.00;95266.63;10494019;28;1922;-76
2023/09/18 10:42:50;;;;;;;;;;;;;;;24.55;100.00;95280.56;10524948;28;4733;-75
2023/09/18 10:47:53;;;;;;;;;;;;;;;24.76;100.00;95280.03;10529241;28;1834;-75
2023/09/18 10:52:57;;;;;;;;;;;;;;;24.75;100.00;95279.22;10530732;28;3067;-79
2023/09/18 10:58:00;;;;;;;;;;;;;;;25.01;100.00;95274.78;10502748;28;1852;-75
2023/09/18 11:03:04;;;;;;;;;;;;;;;24.62;100.00;95274.34;10510321;28;1834;-75
2023/09/18 11:08:08;;;;;;;;;;;;;;;24.64;100.00;95275.56;10512001;28;1851;-76
2023/09/18 11:13:13;;;;;;;;;;;;;;;24.42;100.00;95279.22;10526183;28;1924;-77
2023/09/18 11:18:18;;;;;;;;;;;;;;;24.33;100.00;95295.19;10534204;28;2025;-77
2023/09/18 11:23:21;;;;;;;;;;;;;;;24.65;100.00;95293.63;10506720;28;2537;-76
2023/09/18 11:28:27;;;;;;;;;;;;;;;24.62;100.00;95301.81;10508986;28;1951;-76
2023/09/18 11:33:36;;;;;;;;;;;;;;;24.08;100.00;95308.59;10526080;28;2052;-76
2023/09/18 11:38:48;;;;;;;;;;;;;;;24.15;100.00;95323.19;10510218;28;2936;-74
2023/09/18 11:43:54;;;;;;;;;;;;;;;23.69;100.00;95323.31;10508766;28;1843;-74
2023/09/18 11:49:00;;;;;;;;;;;;;;;23.50;100.00;95347.28;10491523;28;1889;-75
2023/09/18 11:54:03;;;;;;;;;;;;;;;23.05;100.00;95349.63;10502954;28;1909;-74
2023/09/18 11:59:14;;;;;;;;;;;;;;;22.58;100.00;95366.28;10504420;28;1981;-72
2023/09/18 12:04:17;;;;;;;;;;;;;;;22.33;100.00;95385.75;10506961;28;1954;-73
2023/09/18 12:09:21;;;;;;;;;;;;;;;22.35;100.00;95388.91;10525064;28;1865;-72
2023/09/18 12:14:25;;;;;;;;;;;;;;;21.90;100.00;95394.13;10519497;28;1957;-72
2023/09/18 12:19:34;;;;;;;;;;;;;;;21.55;100.00;95397.56;10526457;28;1909;-72
2023/09/18 12:24:39;;;;;;;;;;;;;;;20.93;100.00;95423.63;10507096;28;2728;-74
2023/09/18 12:29:42;;;;;;;;;;;;;;;20.56;100.00;95440.16;10518783;28;1850;-74
2023/09/18 12:34:46;;;;;;;;;;;;;;;20.15;100.00;95452.91;10511514;28;1958;-72
2023/09/18 12:39:52;;;;;;;;;;;;;;;19.87;100.00;95454.75;10526169;28;1830;-76
2023/09/18 12:44:55;;;;;;;;;;;;;;;19.70;100.00;95462.00;10520640;28;1962;-78
2023/09/18 12:50:11;;;;;;;;;;;;;;;19.60;100.00;95457.00;10534964;28;1814;-77
2023/09/18 12:55:15;;;;;;;;;;;;;;;19.64;100.00;95473.47;10531297;28;1890;-77
2023/09/18 13:00:31;;;;;;;;;;;;;;;19.38;100.00;95488.13;10519018;28;2095;-72
2023/09/18 13:05:38;;;;;;;;;;;;;;;18.70;100.00;95495.78;10532098;28;2059;-75
2023/09/18 13:10:43;;;;;;;;;;;;;;;18.16;100.00;95519.31;10506897;28;2029;-73
2023/09/18 13:15:49;;;;;;;;;;;;;;;17.84;100.00;95521.53;10506861;28;2066;-74
2023/09/18 13:20:58;;;;;;;;;;;;;;;17.58;100.00;95528.97;10527977;28;2031;-76
2023/09/18 13:26:03;;;;;;;;;;;;;;;17.40;100.00;95544.50;10513685;28;2912;-75
2023/09/18 13:31:09;;;;;;;;;;;;;;;17.37;100.00;95550.56;10513946;28;2294;-75
2023/09/18 13:36:19;;;;;;;;;;;;;;;17.47;100.00;95542.06;10498425;28;1969;-75
2023/09/18 13:41:36;;;;;;;;;;;;;;;17.69;100.00;95539.16;10534696;28;4783;-81
2023/09/18 13:46:56;;;;;;;;;;;;;;;17.59;100.00;95522.41;10529517;28;1941;-75
2023/09/18 13:52:00;;;;;;;;;;;;;;;17.86;100.00;95535.59;10538446;28;1957;-80
2023/09/18 13:57:04;;;;;;;;;;;;;;;18.09;100.00;95526.06;10535643;28;1914;-79
2023/09/18 14:02:10;;;;;;;;;;;;;;;18.29;100.00;95505.47;10535103;28;1893;-82
2023/09/18 14:12:36;;;;;;;;;;;;;;;19.04;100.00;95469.41;10528161;28;1886;-75
2023/09/18 14:17:40;;;;;;;;;;;;;;;19.36;100.00;95476.78;10511528;28;1910;-77
2023/09/18 14:22:46;;;;;;;;;;;;;;;19.81;100.00;95456.91;10527458;28;1904;-76
2023/09/18 14:27:51;;;;;;;;;;;;;;;19.90;100.00;95430.28;10526714;28;1877;-80
2023/09/18 14:32:56;;;;;;;;;;;;;;;19.98;100.00;95398.59;10526235;28;2003;-81
2023/09/18 14:37:59;;;;;;;;;;;;;;;19.85;100.00;95389.63;10525584;28;2585;-87
2023/09/18 14:48:30;;;;;;;;;;;;;;;20.15;100.00;95383.91;10512313;28;1908;-79
2023/09/18 14:53:35;;;;;;;;;;;;;;;19.89;100.00;95382.34;10526547;28;1975;-77
2023/09/18 14:58:40;;;;;;;;;;;;;;;19.73;100.00;95397.03;10491397;28;1951;-79
2023/09/18 15:03:51;;;;;;;;;;;;;;;19.63;100.00;95396.31;10539106;28;1907;-85
2023/09/18 15:08:55;;;;;;;;;;;;;;;19.54;100.00;95381.19;10544644;28;2012;-80
2023/09/18 15:13:59;;;;;;;;;;;;;;;19.53;100.00;95383.13;10517573;28;1968;-80
2023/09/18 15:19:08;;;;;;;;;;;;;;;19.43;100.00;95370.72;10535474;28;1847;-76
2023/09/18 15:24:13;;;;;;;;;;;;;;;19.18;100.00;95352.75;10526422;28;2037;-75
2023/09/18 15:29:18;;;;;;;;;;;;;;;18.79;100.00;95345.97;10531154;28;1908;-74
2023/09/18 15:34:23;;;;;;;;;;;;;;;18.60;100.00;95365.50;10532764;28;1997;-75
2023/09/18 15:39:35;;;;;;;;;;;;;;;18.41;100.00;95390.47;10536629;28;2682;-86
2023/09/18 15:45:02;;;;;;;;;;;;;;;18.29;100.00;95387.69;10527470;28;1902;-79
2023/09/18 15:50:12;;;;;;;;;;;;;;;18.23;100.00;95406.13;10509770;28;2006;-77
2023/09/18 15:55:19;;;;;;;;;;;;;;;18.06;100.00;95401.59;10511978;28;1917;-83
2023/09/18 16:00:28;;;;;;;;;;;;;;;17.90;100.00;95391.66;10524626;28;1889;-75
2023/09/18 16:05:32;;;;;;;;;;;;;;;17.92;100.00;95397.53;10525086;28;2001;-85
2023/09/18 16:10:40;;;;;;;;;;;;;;;18.20;100.00;95398.66;10524712;28;1875;-77
2023/09/18 16:15:46;;;;;;;;;;;;;;;18.58;100.00;95384.09;10499716;28;1975;-75
2023/09/18 16:20:56;;;;;;;;;;;;;;;19.07;100.00;95367.94;10524903;28;1897;-74
2023/09/18 16:26:00;;;;;;;;;;;;;;;19.18;100.00;95358.22;10505702;28;2657;-77
2023/09/18 16:31:06;;;;;;;;;;;;;;;18.88;100.00;95350.19;10495797;28;2019;-77
2023/09/18 16:36:20;;;;;;;;;;;;;;;18.89;100.00;95329.19;10525590;28;1946;-77
2023/09/18 16:41:25;;;;;;;;;;;;;;;18.79;100.00;95322.25;10520152;28;4706;-77
2023/09/18 16:46:29;;;;;;;;;;;;;;;18.74;100.00;95314.31;10523938;28;1821;-76
2023/09/18 16:51:31;;;;;;;;;;;;;;;18.67;100.00;95314.06;10505986;28;1775;-76
2023/09/18 16:56:35;;;;;;;;;;;;;;;18.50;100.00;95311.47;10526938;28;1981;-76
2023/09/18 17:01:39;;;;;;;;;;;;;;;18.48;100.00;95313.75;10515550;28;1953;-76
2023/09/18 17:06:42;;;;;;;;;;;;;;;18.32;100.00;95322.53;10498754;28;1946;-75
2023/09/18 17:11:46;;;;;;;;;;;;;;;18.15;100.00;95322.69;10524396;28;1961;-75
2023/09/18 17:16:49;;;;;;;;;;;;;;;17.88;100.00;95315.03;10483773;28;1990;-75
2023/09/18 17:21:54;;;;;;;;;;;;;;;17.72;100.00;95299.31;10524339;28;1889;-77
2023/09/18 17:27:00;;;;;;;;;;;;;;;17.68;100.00;95292.91;10522112;28;2785;-75
2023/09/18 17:32:03;;;;;;;;;;;;;;;17.68;100.00;95292.13;10509545;28;2145;-75
2023/09/18 17:37:07;;;;;;;;;;;;;;;17.56;100.00;95287.41;10515571;28;1985;-75
2023/09/18 17:42:16;;;;;;;;;;;;;;;17.57;100.00;95291.72;10509193;28;2030;-75
2023/09/18 17:47:23;;;;;;;;;;;;;;;17.41;100.00;95287.97;10529655;28;1866;-74
2023/09/18 17:52:28;;;;;;;;;;;;;;;17.29;100.00;95286.75;10531902;28;1975;-75
2023/09/18 17:57:35;;;;;;;;;;;;;;;17.26;100.00;95287.41;10506490;28;2004;-74
2023/09/18 18:02:44;;;;;;;;;;;;;;;17.39;100.00;95287.50;10523833;28;1904;-74
2023/09/18 18:07:49;;;;;;;;;;;;;;;17.48;100.00;95286.31;10506073;28;1933;-75
2023/09/18 18:12:55;;;;;;;;;;;;;;;17.49;100.00;95285.19;10529263;28;2520;-75
2023/09/18 18:17:59;;;;;;;;;;;;;;;17.58;100.00;95282.44;10524518;28;1910;-73
2023/09/18 18:23:01;;;;;;;;;;;;;;;17.60;100.00;95296.47;10507915;28;1500;-77
2023/09/18 18:28:06;;;;;;;;;;;;;;;17.58;100.00;95308.81;10488015;28;1788;-74
2023/09/18 18:33:13;;;;;;;;;;;;;;;17.75;100.00;95314.16;10528530;28;1572;-78
2023/09/18 18:38:16;;;;;;;;;;;;;;;17.67;100.00;95307.63;10506630;28;1918;-75
2023/09/18 18:43:21;;;;;;;;;;;;;;;17.52;100.00;95309.00;10525360;28;4770;-75
2023/09/18 18:48:30;;;;;;;;;;;;;;;17.51;100.00;95320.22;10510528;28;1409;-76
2023/09/18 18:53:33;;;;;;;;;;;;;;;17.51;100.00;95322.94;10531852;28;1496;-75
2023/09/18 18:58:39;;;;;;;;;;;;;;;17.55;100.00;95321.13;10527954;28;2479;-73
2023/09/18 19:03:43;;;;;;;;;;;;;;;17.54;100.00;95324.97;10507849;28;1453;-75
2023/09/18 19:08:48;;;;;;;;;;;;;;;17.46;100.00;95317.69;10484211;28;1639;-75
2023/09/18 19:13:55;;;;;;;;;;;;;;;17.50;100.00;95321.34;10503702;28;1929;-75
2023/09/18 19:19:00;;;;;;;;;;;;;;;17.34;100.00;95314.88;10507399;28;1925;-74
2023/09/18 19:24:10;;;;;;;;;;;;;;;17.54;100.00;95314.09;10521359;28;1484;-73
2023/09/18 19:29:16;;;;;;;;;;;;;;;17.58;100.00;95301.47;10521403;28;1883;-73
2023/09/18 19:34:20;;;;;;;;;;;;;;;17.55;100.00;95285.81;10526704;28;1496;-74
2023/09/18 19:39:24;;;;;;;;;;;;;;;17.44;100.00;95320.72;10504523;28;1957;-76
2023/09/18 19:44:31;;;;;;;;;;;;;;;17.45;100.00;95335.91;10527295;28;4678;-75
2023/09/18 19:49:34;;;;;;;;;;;;;;;17.50;100.00;95326.78;10496349;28;1751;-73
2023/09/18 19:54:38;;;;;;;;;;;;;;;17.44;100.00;95342.47;10525471;28;1926;-74
2023/09/18 19:59:42;;;;;;;;;;;;;;;17.49;100.00;95336.81;10513877;28;1913;-74
2023/09/18 20:04:51;;;;;;;;;;;;;;;17.42;100.00;95328.38;10541088;28;1424;-75
2023/09/18 20:09:56;;;;;;;;;;;;;;;17.34;100.00;95328.44;10519840;28;1712;-74
2023/09/18 20:15:01;;;;;;;;;;;;;;;17.47;100.00;95333.66;10497795;28;1926;-75
2023/09/18 20:20:07;;;;;;;;;;;;;;;17.47;100.00;95324.69;10514908;28;1491;-76
2023/09/18 20:25:13;;;;;;;;;;;;;;;17.42;100.00;95330.31;10507275;28;1743;-77
2023/09/18 20:30:20;;;;;;;;;;;;;;;17.35;100.00;95322.69;10521939;28;2519;-77
2023/09/18 20:35:25;;;;;;;;;;;;;;;17.39;100.00;95325.56;10518321;28;1978;-77
2023/09/18 20:40:29;;;;;;;;;;;;;;;17.36;100.00;95324.25;10490745;28;2005;-74
2023/09/18 20:45:32;;;;;;;;;;;;;;;17.25;100.00;95320.34;10503221;28;2138;-76
2023/09/18 20:50:37;;;;;;;;;;;;;;;17.05;100.00;95321.88;10487546;28;1901;-75
2023/09/18 20:55:43;;;;;;;;;;;;;;;17.05;100.00;95323.75;10502223;28;1922;-74
2023/09/18 21:00:46;;;;;;;;;;;;;;;17.04;100.00;95331.13;10524233;28;1987;-74
2023/09/18 21:05:54;;;;;;;;;;;;;;;17.01;100.00;95329.06;10519795;28;1877;-76
2023/09/18 21:10:59;;;;;;;;;;;;;;;17.12;100.00;95341.16;10526671;28;1882;-74
2023/09/18 21:16:03;;;;;;;;;;;;;;;17.02;100.00;95339.59;10506502;28;1996;-74
2023/09/18 21:21:08;;;;;;;;;;;;;;;16.91;100.00;95342.97;10494352;28;1779;-74
2023/09/18 21:26:18;;;;;;;;;;;;;;;16.94;100.00;95334.19;10531416;28;2533;-75
2023/09/18 21:31:21;;;;;;;;;;;;;;;16.93;100.00;95333.41;10524953;28;1814;-74
2023/09/18 21:36:25;;;;;;;;;;;;;;;16.92;100.00;95336.44;10510549;28;1967;-75
2023/09/18 21:41:29;;;;;;;;;;;;;;;16.89;100.00;95347.94;10531819;28;4721;-77
2023/09/18 21:46:32;;;;;;;;;;;;;;;16.97;100.00;95360.69;10511049;28;1836;-78
2023/09/18 21:51:38;;;;;;;;;;;;;;;17.06;100.00;95357.97;10511856;28;2090;-79
2023/09/18 21:56:42;;;;;;;;;;;;;;;17.02;100.00;95364.03;10534831;28;1983;-75
2023/09/18 22:01:48;;;;;;;;;;;;;;;16.96;100.00;95353.66;10533047;28;1829;-76
2023/09/18 22:06:52;;;;;;;;;;;;;;;16.94;100.00;95348.56;10527378;28;2005;-76
2023/09/18 22:11:57;;;;;;;;;;;;;;;16.86;100.00;95360.25;10536245;28;1928;-76
2023/09/18 22:17:03;;;;;;;;;;;;;;;16.93;100.00;95359.75;10509725;28;1924;-75
2023/09/18 22:22:09;;;;;;;;;;;;;;;16.96;100.00;95359.09;10468922;28;2107;-75
2023/09/18 22:27:20;;;;;;;;;;;;;;;16.90;100.00;95354.97;10534672;28;2383;-74
2023/09/18 22:32:32;;;;;;;;;;;;;;;16.99;100.00;95358.47;10510540;28;1932;-74
2023/09/18 22:37:41;;;;;;;;;;;;;;;16.79;100.00;95367.28;10532748;28;2012;-75
2023/09/18 22:42:45;;;;;;;;;;;;;;;16.76;100.00;95349.72;10520168;28;4828;-75
2023/09/18 22:47:52;;;;;;;;;;;;;;;16.75;100.00;95348.94;10530626;28;1889;-76
2023/09/18 22:52:56;;;;;;;;;;;;;;;16.73;100.00;95362.03;10506545;28;1843;-75
2023/09/18 22:58:00;;;;;;;;;;;;;;;16.70;100.00;95361.88;10529369;28;1890;-72
2023/09/18 23:03:12;;;;;;;;;;;;;;;16.55;100.00;95367.78;10511124;28;1879;-75
2023/09/18 23:08:20;;;;;;;;;;;;;;;16.50;100.00;95352.47;10525558;28;1861;-75
2023/09/18 23:13:24;;;;;;;;;;;;;;;16.61;100.00;95358.38;10523021;28;2419;-75
2023/09/18 23:18:32;;;;;;;;;;;;;;;16.65;100.00;95357.38;10521330;28;1985;-76
2023/09/18 23:23:51;;;;;;;;;;;;;;;16.62;100.00;95376.25;10531192;28;1868;-75
2023/09/18 23:28:55;;;;;;;;;;;;;;;16.82;100.00;95367.44;10525563;28;2080;-76
2023/09/18 23:34:02;;;;;;;;;;;;;;;16.82;100.00;95378.31;10526236;28;1899;-74
2023/09/18 23:39:10;;;;;;;;;;;;;;;17.01;100.00;95367.88;10511063;28;1910;-75
2023/09/18 23:44:17;;;;;;;;;;;;;;;17.18;100.00;95367.03;10519463;28;4875;-76
2023/09/18 23:49:22;;;;;;;;;;;;;;;17.21;100.00;95365.56;10524208;28;1912;-74
2023/09/18 23:54:29;;;;;;;;;;;;;;;17.28;100.00;95363.16;10512195;28;1871;-74
2023/09/18 23:59:36;;;;;;;;;;;;;;;17.49;100.00;95350.41;10523947;28;1913;-76
